Gulkana, Alaska
Current Conditions -  °F | °C
As of 5:53 PM on Tuesday 21 Oct 2014 (Local Time) from PAGK Reporting Station
Broken Clouds Broken Clouds  
Wind Chill: 19°   Ceiling: 1500
Heat Index: 25°   Visibility: 10mi
Dew Point: 24°   Wind: 5mph
Humidity: 96%   Direction: 170°S
Pressure: 29.31"   Gusts: NA
Location:  62.25°N, 145.42°W
Report Text: PAGK 220153Z AUTO 17004KT 10SM FEW002 BKN015 M04/M04 A2931 RMK AO2 SLP959 T10391044 TSNO
Loading
Personal Weather Stations






























Interactive Weather Map
Tropical Storm Tracking
New forecast layout! Learn more

10-Day Weather Forecast

Advertisements
Track Severe Weather on mobile